• Join FlightAware (Why Join?)
  • Login
  • US Flag 
02:57AM EDT


 

Airport Tracker/Info


-or-


 

Live Flight TrackerFlight Track Log ✈ EJA929 ✈ 19-Jul-2013 ✈ KAPA - KSBM

Flight Track Log - Related Links

Times and Time Zones

All times are in EDT time to prevent confusion due to time zone crossing. See the EJA929 flight status page for this flight to view local times or setup timezone preferences in your user account.

Time Position Orientation Groundspeed Altitude Reporting Facility
EDT Latitude Longitude Course Direction KTS MPH feet Rate Location/Type
01:57PM 39.7000 -104.8667 360° North 244 281 10,300  Level Denver TRACON
01:58PM 39.7667 -104.8333 21° North 295 339 11,700 1,380 Climbing Denver TRACON
01:59PM 39.8353 -104.7944 24° Northeast 323 372 12,900 1,080 Climbing Denver Center
02:00PM 39.9167 -104.7539 21° North 359 413 13,900 1,200 Climbing Denver Center
02:01PM 39.9599 -104.3516 45° Northeast  Level FlightAware Approximate
02:01PM 40.0378 -104.6917 21° North 379 436 15,400  Level Denver Center
02:02PM 40.1147 -104.6289 32° Northeast 380 437 16,900 1,740 Climbing Denver Center
02:03PM 40.2228 -104.5367 33° Northeast 370 426 19,100 1,860 Climbing Denver Center
02:04PM 40.2961 -104.4747 33° Northeast 370 426 20,800 1,920 Climbing Denver Center
02:05PM 40.4006 -104.3856 33° Northeast 364 419 23,200 1,920 Climbing Denver Center
02:06PM 40.4761 -104.3200 33° Northeast 368 423 24,800 1,740 Climbing Denver Center
02:07PM 40.5792 -104.2289 34° Northeast 372 428 26,900 1,860 Climbing Denver Center
02:08PM 40.6572 -104.1300 44° Northeast 382 440 28,700 1,560 Climbing Denver Center
02:09PM 40.7361 -104.0317 43° Northeast 387 445 30,200 1,440 Climbing Denver Center
02:10PM 40.8183 -103.9278 44° Northeast 402 463 31,700 1,440 Climbing Denver Center
02:11PM 40.9031 -103.8183 44° Northeast 420 483 33,200 1,440 Climbing Denver Center
02:12PM 41.0217 -103.6636 45° Northeast 437 503 35,000 1,320 Climbing Denver Center
02:13PM 41.1089 -103.5511 44° Northeast 452 520 36,300 1,320 Climbing Denver Center
02:14PM 41.2128 -103.4150 45° Northeast 469 540 37,800 1,200 Climbing Denver Center
02:16PM 41.3019 -103.2972 45° Northeast 472 543 38,900 960 Climbing Denver Center
02:17PM 41.3978 -103.1442 50° Northeast 489 563 39,900 780 Climbing Denver Center
02:18PM 41.4353 -102.9683 74° East 516 594 40,600 480 Climbing Denver Center
02:19PM 41.4744 -102.7594 76° East 522 601 41,000 120 Climbing Denver Center
02:20PM 41.5161 -102.5342 76° East 543 625 41,000  Level Denver Center
02:21PM 41.5572 -102.3136 76° East 548 631 41,000  Level Denver Center
02:22PM 41.6031 -102.1286 72° East 545 627 41,000  Level Denver Center
02:23PM 41.6633 -101.9150 69° East 549 632 41,000  Level Denver Center
02:24PM 41.7117 -101.7325 70° East 546 628 41,000  Level Denver Center
02:25PM 41.7633 -101.5478 69° East 551 634 41,000  Level Denver Center
02:26PM 41.8208 -101.3317 70° East 550 633 41,000  Level Denver Center
02:27PM 41.8867 -101.0828 70° East 553 636 41,000  Level Denver Center
02:28PM 41.9344 -100.8969 71° East 551 634 41,000  Level Denver Center
02:29PM 41.9908 -100.6825 70° East 545 627 41,000  Level Denver Center
02:30PM 42.0367 -100.4958 72° East 546 628 41,000  Level Denver Center
02:31PM 42.0775 -100.3300 72° East 546 628 41,000  Level Minneapolis Center
02:32PM 42.1244 -100.1361 72° East 544 626 41,000  Level Minneapolis Center
02:33PM 42.1714 -99.9408 72° East 546 628 41,000  Level Minneapolis Center
02:35PM 42.2311 -99.6867 72° East 549 632 41,000  Level Denver Center
02:36PM 42.2836 -99.4694 72° East 545 627 41,000  Level Denver Center
02:36PM 42.3117 -99.3497 72° East 551 634 41,000  Level Minneapolis Center
02:37PM 42.3592 -99.1492 72° East 558 642 41,000  Level Minneapolis Center
02:38PM 42.4144 -98.9081 73° East 557 641 41,000  Level Minneapolis Center
02:39PM 42.4594 -98.7094 73° East 553 636 41,000  Level Minneapolis Center
02:41PM 42.5047 -98.5106 73° East 551 634 41,000  Level Minneapolis Center
02:42PM 42.5494 -98.3100 73° East 554 638 41,000  Level Minneapolis Center
02:43PM 42.5942 -98.1106 73° East 552 635 41,000  Level Minneapolis Center
02:44PM 42.6378 -97.9111 73° East 552 635 41,000  Level Minneapolis Center
02:45PM 42.6842 -97.7033 73° East 547 629 41,000  Level Minneapolis Center
02:46PM 42.7261 -97.5022 74° East 552 635 41,000  Level Minneapolis Center
02:47PM 42.7778 -97.2625 74° East 554 638 41,000  Level Minneapolis Center
02:48PM 42.8194 -97.0617 74° East 554 638 41,000  Level Minneapolis Center
02:49PM 42.8617 -96.8603 74° East 555 639 41,000  Level Minneapolis Center
02:50PM 42.9042 -96.6597 74° East 554 638 41,000  Level Minneapolis Center
02:51PM 42.9458 -96.4583 74° East 555 639 41,000  Level Minneapolis Center
02:52PM 42.9947 -96.2144 75° East 558 642 41,000  Level Minneapolis Center
02:53PM 43.0350 -96.0122 75° East 557 641 41,000  Level Minneapolis Center
02:54PM 43.0758 -95.8094 75° East 557 641 41,000  Level Minneapolis Center
02:55PM 43.1158 -95.6047 75° East 560 644 41,000  Level Minneapolis Center
02:56PM 43.1561 -95.4003 75° East 561 646 41,000  Level Minneapolis Center
02:57PM 43.1950 -95.1958 75° East 560 644 41,000  Level Minneapolis Center
02:58PM 43.2425 -94.9500 75° East 560 644 41,000  Level Minneapolis Center
02:59PM 43.2817 -94.7433 75° East 562 647 41,000  Level Minneapolis Center
03:00PM 43.3192 -94.5369 76° East 560 644 41,000  Level Minneapolis Center
03:01PM 43.3644 -94.2886 76° East 561 646 41,000  Level Minneapolis Center
03:02PM 43.4058 -94.0558 76° East 565 650 41,000  Level Minneapolis Center
03:03PM 43.4367 -93.8906 76° East 566 651 41,000  Level Minneapolis Center
03:05PM 43.4811 -93.6414 76° East 564 649 41,000  Level Minneapolis Center
03:06PM 43.5172 -93.4336 76° East 562 647 41,000  Level Minneapolis Center
03:07PM 43.5586 -93.1994 76° East 561 646 41,000  Level Minneapolis Center
03:08PM 43.5972 -92.9736 77° East 566 651 41,000  Level Minneapolis Center
03:09PM 43.6256 -92.8058 77° East 566 651 41,000  Level Minneapolis Center
03:10PM 43.6683 -92.5539 77° East 565 650 41,000  Level Minneapolis Center
03:11PM 43.7042 -92.3375 77° East 579 666 41,000  Level Minneapolis Center
03:12PM 43.7456 -92.0836 77° East 567 652 41,000  Level Minneapolis Center
03:13PM 43.7806 -91.8708 77° East 568 654 41,000  Level Minneapolis Center
03:14PM 43.8139 -91.6597 78° East 563 648 41,000 -360 Level Minneapolis Center
03:15PM 43.8469 -91.4472 78° East 564 649 40,300 -1,320 Descending Minneapolis Center
03:16PM 43.8756 -91.2389 79° East 560 644 38,300 -1,920 Descending Minneapolis Center
03:17PM 43.8744 -91.0236 90° East 560 644 36,300 -2,160 Descending Minneapolis Center
03:18PM 43.8683 -90.7597 92° East 571 657 33,900 -2,220 Descending Minneapolis Center
03:19PM 43.8628 -90.5261 92° East 575 662 31,800 -2,040 Descending Minneapolis Center
03:20PM 43.8603 -90.4086 92° East 576 663 30,700 -1,920 Descending Chicago Center
03:21PM 43.8542 -90.1928 92° East 579 666 28,800 -1,920 Descending Chicago Center
03:22PM 43.8481 -89.9717 92° East 574 661 26,800 -2,040 Descending Chicago Center
03:23PM 43.8411 -89.7189 92° East 561 646 24,600 -1,860 Descending Chicago Center
03:24PM 43.8342 -89.5156 93° East 534 615 23,000 -1,620 Descending Chicago Center
03:25PM 43.8281 -89.3178 92° East 514 592 21,300 -1,980 Descending Chicago Center
03:26PM 43.8217 -89.1211 93° East 511 588 19,000 -2,520 Descending Chicago Center
03:27PM 43.8150 -88.9294 93° East 497 572 16,200 -2,640 Descending Chicago Center
03:28PM 43.8067 -88.7300 93° East 442 509 13,600 -2,280 Descending Chicago Center
03:29PM 43.8003 -88.5658 93° East 426 490 11,500 -1,920 Descending Chicago Center
03:30PM 43.7953 -88.4217 93° East 374 430 9,700 -1,680 Descending Chicago Center
03:31PM 43.7903 -88.2972 93° East 327 376 8,100 -1,560 Descending Chicago Center
03:32PM 43.7847 -88.1750 94° East 317 365 6,500 -1,560 Descending Chicago Center
03:33PM 43.7794 -88.0542 93° East 314 361 4,900 -1,500 Descending Chicago Center
03:34PM 43.7750 -87.9339 93° East 297 342 3,500 -1,380 Descending Chicago Center